Time;durP1;ratioP1;P1;durP2;ratioP2;P2;SDS_P1;SDS_P2;PMS_P1;PMS_P2;Temp;Humidity;BMP_temperature;BMP_pressure;BME280_temperature;BME280_humidity;BME280_pressure;Samples;Min_cycle;Max_cycle;Signal;HPM_P1;HPM_P2
2023/05/20 00:02:22;;;;;;;3.25;1.27;;;;;;;;;;5033981;28;20271;-70
2023/05/20 00:04:47;;;;;;;7.47;1.83;;;;;;;;;;5031597;28;20493;-71
2023/05/20 00:07:12;;;;;;;4.50;1.13;;;;;;;;;;5033824;28;20295;-71
2023/05/20 00:09:38;;;;;;;2.87;1.10;;;;;;;;;;5030027;28;20033;-70
2023/05/20 00:12:03;;;;;;;3.38;1.30;;;;;;;;;;5035213;28;20353;-71
2023/05/20 00:14:28;;;;;;;4.05;1.25;;;;;;;;;;5029990;28;20025;-71
2023/05/20 00:16:54;;;;;;;3.17;1.20;;;;;;;;;;5033028;28;20025;-71
2023/05/20 00:19:19;;;;;;;4.13;1.57;;;;;;;;;;5032605;28;20026;-71
2023/05/20 00:21:44;;;;;;;3.47;1.25;;;;;;;;;;5033472;28;20345;-71
2023/05/20 00:24:09;;;;;;;3.03;1.40;;;;;;;;;;5030638;28;20026;-72
2023/05/20 00:26:35;;;;;;;6.57;1.30;;;;;;;;;;5032034;28;20330;-71
2023/05/20 00:29:00;;;;;;;1.75;0.98;;;;;;;;;;5031961;28;20425;-71
2023/05/20 00:31:25;;;;;;;3.43;1.20;;;;;;;;;;5029628;28;20009;-71
2023/05/20 00:33:50;;;;;;;3.05;1.58;;;;;;;;;;5031695;28;20333;-72
2023/05/20 00:36:16;;;;;;;3.22;1.55;;;;;;;;;;5030532;28;20021;-71
2023/05/20 00:38:41;;;;;;;7.40;1.30;;;;;;;;;;5029857;28;20505;-71
2023/05/20 00:41:06;;;;;;;3.37;1.30;;;;;;;;;;5033427;28;20021;-71
2023/05/20 00:43:31;;;;;;;3.53;1.20;;;;;;;;;;5030212;28;20737;-71
2023/05/20 00:45:56;;;;;;;3.23;1.50;;;;;;;;;;5034510;28;20021;-71
2023/05/20 00:48:22;;;;;;;3.40;1.70;;;;;;;;;;5030674;28;20771;-71
2023/05/20 00:50:48;;;;;;;2.45;1.23;;;;;;;;;;5032965;28;20196;-71
2023/05/20 00:53:15;;;;;;;3.72;1.40;;;;;;;;;;5031626;28;20268;-71
2023/05/20 00:55:41;;;;;;;5.40;1.20;;;;;;;;;;5028977;28;20555;-71
2023/05/20 00:58:06;;;;;;;10.67;1.63;;;;;;;;;;5030512;28;20029;-72
2023/05/20 01:00:31;;;;;;;2.33;1.53;;;;;;;;;;5031735;28;20283;-71
2023/05/20 01:02:56;;;;;;;2.80;1.33;;;;;;;;;;5028353;28;20808;-72
2023/05/20 01:05:21;;;;;;;2.60;1.23;;;;;;;;;;5029102;28;20363;-71
2023/05/20 01:07:47;;;;;;;4.60;1.73;;;;;;;;;;5030456;28;20426;-71
2023/05/20 01:10:12;;;;;;;9.83;1.47;;;;;;;;;;5031311;28;20357;-71
2023/05/20 01:12:39;;;;;;;3.25;1.42;;;;;;;;;;5030850;28;20888;-71
2023/05/20 01:15:06;;;;;;;6.00;1.42;;;;;;;;;;5032348;28;20108;-71
2023/05/20 01:17:31;;;;;;;5.53;1.40;;;;;;;;;;5031159;28;20203;-71
2023/05/20 01:19:58;;;;;;;2.95;1.20;;;;;;;;;;5028431;28;20025;-71
2023/05/20 01:22:26;;;;;;;3.35;1.60;;;;;;;;;;5030235;28;20322;-71
2023/05/20 01:24:52;;;;;;;2.55;1.30;;;;;;;;;;5031002;28;20379;-72
2023/05/20 01:27:19;;;;;;;3.28;1.27;;;;;;;;;;5030289;28;20021;-71
2023/05/20 01:29:44;;;;;;;5.40;1.40;;;;;;;;;;5030241;28;20017;-71
2023/05/20 01:32:11;;;;;;;10.38;1.73;;;;;;;;;;5028884;28;20486;-71
2023/05/20 01:34:37;;;;;;;35.30;1.85;;;;;;;;;;5027827;28;20471;-71
2023/05/20 01:37:03;;;;;;;4.72;1.40;;;;;;;;;;5029642;28;20291;-71
2023/05/20 01:39:29;;;;;;;2.67;1.05;;;;;;;;;;5030307;28;20021;-70
2023/05/20 01:41:55;;;;;;;2.70;1.10;;;;;;;;;;5027825;28;20445;-70
2023/05/20 01:44:20;;;;;;;6.55;1.25;;;;;;;;;;5030089;28;20522;-71
2023/05/20 01:46:49;;;;;;;4.05;1.30;;;;;;;;;;5028882;28;20117;-71
2023/05/20 01:49:14;;;;;;;3.67;1.35;;;;;;;;;;5028976;28;20474;-71
2023/05/20 01:51:39;;;;;;;6.22;1.70;;;;;;;;;;5029723;28;20036;-71
2023/05/20 01:54:05;;;;;;;4.00;1.60;;;;;;;;;;5029386;28;20018;-71
2023/05/20 01:56:30;;;;;;;5.73;1.60;;;;;;;;;;5029104;28;20629;-71
2023/05/20 01:58:55;;;;;;;6.60;1.43;;;;;;;;;;5028763;28;20390;-70
2023/05/20 02:01:20;;;;;;;3.33;1.63;;;;;;;;;;5030049;28;20271;-71
2023/05/20 02:03:45;;;;;;;3.00;1.30;;;;;;;;;;5032201;28;20785;-71
2023/05/20 02:06:10;;;;;;;4.50;1.17;;;;;;;;;;5032764;28;20422;-72
2023/05/20 02:08:36;;;;;;;2.63;1.20;;;;;;;;;;5031869;28;20602;-71
2023/05/20 02:11:01;;;;;;;5.72;1.70;;;;;;;;;;5028921;28;20275;-71
2023/05/20 02:13:27;;;;;;;2.78;1.70;;;;;;;;;;5031928;28;20523;-71
2023/05/20 02:15:52;;;;;;;3.13;1.30;;;;;;;;;;5035770;28;20029;-70
2023/05/20 02:18:17;;;;;;;6.47;1.50;;;;;;;;;;5032311;28;20025;-71
2023/05/20 02:20:42;;;;;;;6.88;1.85;;;;;;;;;;5033580;28;20252;-71
2023/05/20 02:23:07;;;;;;;4.40;1.47;;;;;;;;;;5032129;28;20021;-71
2023/05/20 02:25:33;;;;;;;6.63;1.47;;;;;;;;;;5035438;28;20694;-71
2023/05/20 02:27:58;;;;;;;8.75;1.58;;;;;;;;;;5032462;28;20248;-71
2023/05/20 02:30:23;;;;;;;9.73;1.30;;;;;;;;;;5033151;28;20108;-70
2023/05/20 02:32:48;;;;;;;3.97;1.57;;;;;;;;;;5030866;28;20259;-70
2023/05/20 02:35:13;;;;;;;4.53;1.80;;;;;;;;;;5033971;28;20295;-70
2023/05/20 02:37:39;;;;;;;4.78;1.60;;;;;;;;;;5030248;28;20660;-71
2023/05/20 02:40:05;;;;;;;3.40;1.60;;;;;;;;;;5032869;28;20017;-71
2023/05/20 02:42:30;;;;;;;9.18;1.25;;;;;;;;;;5033141;28;20068;-71
2023/05/20 02:44:57;;;;;;;3.27;1.37;;;;;;;;;;5030156;28;20025;-71
2023/05/20 02:47:22;;;;;;;4.40;1.60;;;;;;;;;;5034151;28;20375;-71
2023/05/20 02:49:48;;;;;;;2.95;1.40;;;;;;;;;;5031249;28;20117;-71
2023/05/20 02:52:14;;;;;;;5.23;1.43;;;;;;;;;;5032849;28;20029;-71
2023/05/20 02:54:40;;;;;;;3.88;1.85;;;;;;;;;;5032021;28;20295;-72
2023/05/20 02:57:05;;;;;;;3.90;1.77;;;;;;;;;;5033653;28;20071;-71
2023/05/20 02:59:30;;;;;;;8.77;1.83;;;;;;;;;;5034575;28;20029;-72
2023/05/20 03:01:55;;;;;;;2.85;1.60;;;;;;;;;;5032243;28;20017;-71
2023/05/20 03:04:20;;;;;;;6.10;1.80;;;;;;;;;;5032445;28;20021;-72
2023/05/20 03:06:46;;;;;;;7.03;2.27;;;;;;;;;;5032409;28;20323;-71
2023/05/20 03:09:11;;;;;;;2.92;1.30;;;;;;;;;;5030554;28;20278;-70
2023/05/20 03:11:37;;;;;;;5.85;2.35;;;;;;;;;;5032564;28;20022;-72
2023/05/20 03:14:02;;;;;;;6.53;1.80;;;;;;;;;;5032259;28;20090;-70
2023/05/20 03:16:27;;;;;;;5.40;1.73;;;;;;;;;;5028910;28;20355;-71
2023/05/20 03:18:53;;;;;;;3.40;1.70;;;;;;;;;;5032254;28;20337;-70
2023/05/20 03:21:18;;;;;;;4.82;1.33;;;;;;;;;;5028001;28;20025;-70
2023/05/20 03:23:44;;;;;;;4.40;1.80;;;;;;;;;;5027446;28;20037;-72
2023/05/20 03:26:09;;;;;;;5.60;1.80;;;;;;;;;;5030430;28;20502;-71
2023/05/20 03:28:35;;;;;;;10.20;1.90;;;;;;;;;;5028073;28;20029;-71
2023/05/20 03:31:01;;;;;;;5.40;1.88;;;;;;;;;;5028650;28;20252;-71
2023/05/20 03:33:26;;;;;;;4.88;1.90;;;;;;;;;;5028503;28;20096;-72
2023/05/20 03:35:51;;;;;;;4.30;1.55;;;;;;;;;;5031341;28;20024;-71
2023/05/20 03:38:17;;;;;;;7.88;1.98;;;;;;;;;;5028583;28;20219;-71
2023/05/20 03:40:42;;;;;;;6.10;1.80;;;;;;;;;;5030121;28;20027;-71
2023/05/20 03:43:07;;;;;;;3.53;1.70;;;;;;;;;;5025561;28;20815;-71
2023/05/20 03:45:33;;;;;;;5.50;2.30;;;;;;;;;;5031162;28;20280;-71
2023/05/20 03:47:58;;;;;;;3.63;2.00;;;;;;;;;;5026609;28;20676;-71
2023/05/20 03:50:23;;;;;;;5.10;2.20;;;;;;;;;;5029573;28;20044;-70
2023/05/20 03:52:48;;;;;;;3.60;1.70;;;;;;;;;;5029349;28;20038;-71
2023/05/20 03:55:14;;;;;;;4.17;1.70;;;;;;;;;;5028462;28;20278;-71
2023/05/20 03:57:39;;;;;;;5.13;2.27;;;;;;;;;;5031417;28;20287;-71
2023/05/20 04:00:09;;;;;;;6.05;2.05;;;;;;;;;;5032798;28;20359;-73
2023/05/20 04:02:35;;;;;;;4.65;2.47;;;;;;;;;;5030855;28;20394;-71
2023/05/20 04:05:01;;;;;;;12.35;2.28;;;;;;;;;;5031040;28;20017;-71
2023/05/20 04:07:26;;;;;;;3.88;2.08;;;;;;;;;;5031237;28;20013;-70
2023/05/20 04:09:51;;;;;;;5.77;2.43;;;;;;;;;;5034095;28;20449;-71
2023/05/20 04:12:18;;;;;;;6.33;2.30;;;;;;;;;;5031571;28;20280;-70
2023/05/20 04:14:43;;;;;;;5.15;2.55;;;;;;;;;;5033398;28;20684;-71
2023/05/20 04:17:09;;;;;;;10.50;2.55;;;;;;;;;;5030505;28;20047;-70
2023/05/20 04:19:35;;;;;;;9.10;2.40;;;;;;;;;;5031454;28;20500;-71
2023/05/20 04:22:00;;;;;;;4.05;2.00;;;;;;;;;;5030941;28;20030;-71
2023/05/20 04:24:26;;;;;;;5.28;2.63;;;;;;;;;;5031483;28;20021;-72
2023/05/20 04:26:51;;;;;;;9.88;2.70;;;;;;;;;;5031262;28;20017;-71
2023/05/20 04:29:17;;;;;;;5.30;2.33;;;;;;;;;;5033003;28;20032;-71
2023/05/20 04:31:44;;;;;;;6.93;2.75;;;;;;;;;;5029434;28;20017;-71
2023/05/20 04:34:09;;;;;;;4.78;2.60;;;;;;;;;;5031185;28;20083;-71
2023/05/20 04:36:37;;;;;;;4.83;2.33;;;;;;;;;;5029555;28;20033;-71
2023/05/20 04:39:02;;;;;;;6.32;2.85;;;;;;;;;;5030722;28;20271;-71
2023/05/20 04:41:28;;;;;;;3.55;2.20;;;;;;;;;;5028622;28;20032;-71
2023/05/20 04:43:53;;;;;;;6.18;2.63;;;;;;;;;;5029229;28;20014;-71
2023/05/20 04:46:19;;;;;;;4.53;2.20;;;;;;;;;;5027958;28;20080;-71
2023/05/20 04:48:44;;;;;;;4.00;2.50;;;;;;;;;;5027567;28;20040;-71
2023/05/20 04:51:09;;;;;;;4.77;2.30;;;;;;;;;;5030343;28;20029;-72
2023/05/20 04:53:35;;;;;;;6.50;2.50;;;;;;;;;;5027365;28;20752;-71
2023/05/20 04:56:00;;;;;;;4.05;2.63;;;;;;;;;;5028253;28;20109;-72
2023/05/20 04:58:28;;;;;;;4.03;2.05;;;;;;;;;;5027142;28;20056;-72
2023/05/20 05:00:53;;;;;;;4.38;2.30;;;;;;;;;;5026991;28;20048;-71
2023/05/20 05:03:18;;;;;;;4.35;2.30;;;;;;;;;;5028303;28;20475;-71
2023/05/20 05:05:44;;;;;;;15.95;2.67;;;;;;;;;;5027941;28;20022;-71
2023/05/20 05:08:10;;;;;;;7.13;2.42;;;;;;;;;;5027135;28;20444;-71
2023/05/20 05:10:35;;;;;;;3.40;2.22;;;;;;;;;;5027999;28;20032;-71
2023/05/20 05:13:00;;;;;;;6.45;2.35;;;;;;;;;;5026522;28;20021;-71
2023/05/20 05:15:26;;;;;;;4.47;2.20;;;;;;;;;;5026358;28;20288;-71
2023/05/20 05:17:51;;;;;;;9.73;4.38;;;;;;;;;;5025396;28;20671;-71
2023/05/20 05:20:17;;;;;;;4.38;2.15;;;;;;;;;;5027897;28;20013;-70
2023/05/20 05:22:43;;;;;;;4.93;2.42;;;;;;;;;;5026915;28;20104;-71
2023/05/20 05:25:08;;;;;;;6.57;2.10;;;;;;;;;;5027880;28;20022;-71
2023/05/20 05:27:34;;;;;;;9.80;2.58;;;;;;;;;;5025420;28;20033;-73
2023/05/20 05:30:00;;;;;;;3.50;1.70;;;;;;;;;;5024671;28;20029;-71
2023/05/20 05:32:25;;;;;;;3.50;2.10;;;;;;;;;;5027764;28;20509;-70
2023/05/20 05:34:50;;;;;;;6.40;2.50;;;;;;;;;;5027178;28;20123;-71
2023/05/20 05:37:15;;;;;;;4.53;2.23;;;;;;;;;;5031054;28;20024;-70
2023/05/20 05:39:41;;;;;;;3.57;1.93;;;;;;;;;;5027979;28;20802;-70
2023/05/20 05:42:06;;;;;;;5.07;1.98;;;;;;;;;;5026963;28;20268;-71
2023/05/20 05:44:31;;;;;;;6.67;2.07;;;;;;;;;;5027736;28;20026;-71
2023/05/20 05:46:56;;;;;;;3.87;1.70;;;;;;;;;;5025061;28;20387;-71
2023/05/20 05:49:21;;;;;;;4.30;2.47;;;;;;;;;;5027539;28;20264;-71
2023/05/20 05:51:46;;;;;;;4.50;2.10;;;;;;;;;;5029664;28;20363;-71
2023/05/20 05:54:11;;;;;;;4.57;2.53;;;;;;;;;;5029348;28;20284;-69
2023/05/20 05:56:37;;;;;;;3.20;1.80;;;;;;;;;;5029603;28;20358;-69
2023/05/20 05:59:02;;;;;;;4.10;2.10;;;;;;;;;;5031107;28;20272;-69
2023/05/20 06:01:28;;;;;;;6.53;1.98;;;;;;;;;;5033703;28;20283;-69
2023/05/20 06:03:53;;;;;;;4.83;1.77;;;;;;;;;;5031509;28;20076;-70
2023/05/20 06:06:18;;;;;;;4.43;2.40;;;;;;;;;;5032332;28;20371;-69
2023/05/20 06:08:43;;;;;;;3.83;1.95;;;;;;;;;;5033404;28;20080;-69
2023/05/20 06:11:09;;;;;;;3.80;2.05;;;;;;;;;;5031989;28;20097;-69
2023/05/20 06:13:34;;;;;;;4.25;2.13;;;;;;;;;;5035064;28;20068;-69
2023/05/20 06:16:00;;;;;;;5.95;2.35;;;;;;;;;;5034055;28;20084;-69
2023/05/20 06:18:25;;;;;;;5.78;1.90;;;;;;;;;;5035120;28;20473;-70
2023/05/20 06:20:53;;;;;;;9.17;3.00;;;;;;;;;;5033317;28;20406;-69
2023/05/20 06:23:19;;;;;;;6.18;2.40;;;;;;;;;;5032830;28;20476;-70
2023/05/20 06:25:44;;;;;;;4.33;2.13;;;;;;;;;;5031169;28;20022;-70
2023/05/20 06:28:09;;;;;;;5.00;2.42;;;;;;;;;;5033469;28;20733;-70
2023/05/20 06:30:34;;;;;;;4.07;1.92;;;;;;;;;;5032564;28;20287;-70
2023/05/20 06:33:00;;;;;;;5.70;2.40;;;;;;;;;;5037817;28;20459;-70
2023/05/20 06:35:25;;;;;;;4.63;2.55;;;;;;;;;;5033536;28;20374;-70
2023/05/20 06:37:50;;;;;;;3.22;1.90;;;;;;;;;;5035178;28;20029;-70
2023/05/20 06:40:15;;;;;;;5.33;2.47;;;;;;;;;;5031196;28;20021;-70
2023/05/20 06:42:41;;;;;;;3.90;2.25;;;;;;;;;;5033504;28;20824;-70
2023/05/20 06:45:06;;;;;;;3.85;2.00;;;;;;;;;;5032427;28;20029;-70
2023/05/20 06:47:31;;;;;;;3.47;2.17;;;;;;;;;;5037532;28;20120;-70
2023/05/20 06:49:56;;;;;;;5.77;2.33;;;;;;;;;;5031327;28;20107;-71
2023/05/20 06:52:22;;;;;;;5.07;2.17;;;;;;;;;;5032606;28;20358;-70
2023/05/20 06:54:47;;;;;;;5.55;2.75;;;;;;;;;;5030023;28;20048;-70
2023/05/20 06:57:12;;;;;;;6.93;2.20;;;;;;;;;;5033205;28;20058;-70
2023/05/20 06:59:37;;;;;;;5.53;2.50;;;;;;;;;;5032208;28;20268;-71
2023/05/20 07:02:03;;;;;;;6.10;2.40;;;;;;;;;;5031496;28;20673;-70
2023/05/20 07:04:28;;;;;;;5.03;2.50;;;;;;;;;;5033405;28;20283;-70
2023/05/20 07:06:53;;;;;;;5.95;2.17;;;;;;;;;;5030465;28;20013;-70
2023/05/20 07:09:19;;;;;;;4.37;2.33;;;;;;;;;;5032430;28;20060;-70
2023/05/20 07:11:44;;;;;;;5.93;2.40;;;;;;;;;;5032585;28;20260;-70
2023/05/20 07:14:10;;;;;;;4.27;2.50;;;;;;;;;;5034200;28;20100;-71
2023/05/20 07:16:35;;;;;;;5.70;2.72;;;;;;;;;;5030483;28;20330;-71
2023/05/20 07:19:01;;;;;;;6.15;2.58;;;;;;;;;;5030896;28;20034;-70
2023/05/20 07:21:26;;;;;;;6.50;2.60;;;;;;;;;;5033169;28;20094;-70
2023/05/20 07:23:51;;;;;;;2.90;1.73;;;;;;;;;;5032429;28;20021;-71
2023/05/20 07:26:17;;;;;;;5.63;2.67;;;;;;;;;;5033757;28;20736;-70
2023/05/20 07:28:42;;;;;;;7.65;2.70;;;;;;;;;;5034065;28;20033;-70
2023/05/20 07:31:08;;;;;;;4.40;2.58;;;;;;;;;;5031732;28;20013;-70
2023/05/20 07:33:33;;;;;;;7.00;2.83;;;;;;;;;;5031673;28;20026;-70
2023/05/20 07:35:58;;;;;;;5.50;3.22;;;;;;;;;;5032779;28;20473;-70
2023/05/20 07:38:23;;;;;;;6.60;3.00;;;;;;;;;;5032698;28;20104;-70
2023/05/20 07:40:48;;;;;;;7.57;2.70;;;;;;;;;;5023771;28;20280;-70
2023/05/20 07:43:14;;;;;;;5.23;3.10;;;;;;;;;;5031177;28;20105;-70
2023/05/20 07:45:39;;;;;;;8.25;2.53;;;;;;;;;;5029658;28;20079;-70
2023/05/20 07:48:07;;;;;;;6.82;2.60;;;;;;;;;;5026591;28;20010;-71
2023/05/20 07:50:33;;;;;;;5.13;2.42;;;;;;;;;;5030387;28;20449;-70
2023/05/20 07:52:58;;;;;;;6.20;2.75;;;;;;;;;;5027454;28;20072;-70
2023/05/20 07:55:23;;;;;;;6.93;2.70;;;;;;;;;;5029524;28;20463;-71
2023/05/20 07:57:48;;;;;;;7.40;3.03;;;;;;;;;;5030887;28;20275;-70
2023/05/20 08:00:13;;;;;;;4.90;2.80;;;;;;;;;;5027725;28;20516;-69
2023/05/20 08:02:39;;;;;;;4.75;2.60;;;;;;;;;;5028082;28;20416;-71
2023/05/20 08:05:04;;;;;;;6.30;2.47;;;;;;;;;;5028721;28;20561;-70
2023/05/20 08:07:29;;;;;;;5.82;2.72;;;;;;;;;;5030949;28;20032;-70
2023/05/20 08:09:55;;;;;;;5.18;2.50;;;;;;;;;;5027088;28;20014;-71
2023/05/20 08:12:20;;;;;;;11.23;3.58;;;;;;;;;;5030688;28;20068;-69
2023/05/20 08:14:45;;;;;;;8.43;2.50;;;;;;;;;;5028617;28;20033;-70
2023/05/20 08:17:11;;;;;;;6.43;2.20;;;;;;;;;;5028685;28;20334;-69
2023/05/20 08:19:36;;;;;;;7.40;3.28;;;;;;;;;;5025548;28;20017;-69
2023/05/20 08:22:01;;;;;;;6.63;2.80;;;;;;;;;;5029904;28;20032;-70
2023/05/20 08:24:27;;;;;;;7.07;3.33;;;;;;;;;;5030777;28;20088;-70
2023/05/20 08:26:52;;;;;;;5.90;2.83;;;;;;;;;;5024067;28;20044;-70
2023/05/20 08:29:17;;;;;;;5.73;2.50;;;;;;;;;;5027672;28;20350;-70
2023/05/20 08:31:42;;;;;;;7.00;2.45;;;;;;;;;;5029212;28;20766;-69
2023/05/20 08:34:07;;;;;;;5.33;2.57;;;;;;;;;;5030333;28;20029;-70
2023/05/20 08:36:33;;;;;;;7.57;2.90;;;;;;;;;;5027568;28;20304;-69
2023/05/20 08:38:58;;;;;;;4.13;2.28;;;;;;;;;;5019704;28;20032;-69
2023/05/20 08:41:24;;;;;;;7.50;3.13;;;;;;;;;;5022416;28;20052;-71
2023/05/20 08:43:50;;;;;;;7.63;3.47;;;;;;;;;;5032911;28;20765;-69
2023/05/20 08:46:16;;;;;;;6.30;2.35;;;;;;;;;;5030322;28;20028;-70
2023/05/20 08:48:41;;;;;;;6.80;3.08;;;;;;;;;;5027773;28;20022;-70
2023/05/20 08:51:08;;;;;;;6.10;2.27;;;;;;;;;;5028059;28;20573;-70
2023/05/20 08:53:33;;;;;;;5.47;2.67;;;;;;;;;;5025127;28;20272;-70
2023/05/20 08:56:01;;;;;;;5.80;2.97;;;;;;;;;;5029656;28;20529;-69
2023/05/20 08:58:27;;;;;;;4.20;2.58;;;;;;;;;;5021500;28;20079;-69
2023/05/20 09:00:52;;;;;;;5.13;2.90;;;;;;;;;;5025164;28;20430;-69
2023/05/20 09:03:19;;;;;;;7.50;2.90;;;;;;;;;;5027020;28;20021;-69
2023/05/20 09:05:44;;;;;;;5.28;2.55;;;;;;;;;;5028234;28;20386;-69
2023/05/20 09:08:10;;;;;;;11.05;2.95;;;;;;;;;;5022374;28;20100;-70
2023/05/20 09:10:36;;;;;;;3.78;2.35;;;;;;;;;;5023790;28;20150;-70
2023/05/20 09:13:03;;;;;;;4.95;2.30;;;;;;;;;;5024171;28;20048;-70
2023/05/20 09:15:28;;;;;;;6.45;2.28;;;;;;;;;;5026765;28;20078;-69
2023/05/20 09:17:53;;;;;;;7.55;2.75;;;;;;;;;;5028904;28;20010;-69
2023/05/20 09:20:20;;;;;;;11.67;3.53;;;;;;;;;;5023101;28;20096;-69
2023/05/20 09:22:45;;;;;;;4.57;2.70;;;;;;;;;;5028691;28;20032;-69
2023/05/20 09:25:12;;;;;;;8.00;3.25;;;;;;;;;;5030133;28;20017;-69
2023/05/20 09:27:38;;;;;;;3.65;2.17;;;;;;;;;;5028774;28;20560;-69
2023/05/20 09:30:07;;;;;;;6.15;2.63;;;;;;;;;;5029381;28;20019;-69
2023/05/20 09:32:33;;;;;;;5.68;2.40;;;;;;;;;;5029052;28;20117;-69
2023/05/20 09:35:00;;;;;;;8.03;2.63;;;;;;;;;;5027411;28;20105;-69
2023/05/20 09:37:26;;;;;;;6.05;2.70;;;;;;;;;;5027207;28;20362;-69
2023/05/20 09:39:58;;;;;;;11.98;4.03;;;;;;;;;;5025847;28;20188;-69
2023/05/20 09:42:25;;;;;;;10.45;3.20;;;;;;;;;;5022527;28;20029;-68
2023/05/20 09:44:52;;;;;;;6.60;2.58;;;;;;;;;;5024189;28;20017;-68
2023/05/20 09:47:18;;;;;;;6.65;2.58;;;;;;;;;;5025352;28;20032;-69
2023/05/20 09:49:45;;;;;;;6.38;2.90;;;;;;;;;;5027394;28;20289;-68
2023/05/20 09:52:11;;;;;;;5.70;2.75;;;;;;;;;;5028775;28;20483;-68
2023/05/20 09:54:36;;;;;;;7.25;2.38;;;;;;;;;;5022457;28;20022;-68
2023/05/20 09:57:02;;;;;;;3.93;2.30;;;;;;;;;;5023229;28;20025;-69
2023/05/20 09:59:28;;;;;;;4.57;2.15;;;;;;;;;;5024680;28;20275;-70
2023/05/20 10:01:53;;;;;;;4.82;2.47;;;;;;;;;;5024855;28;20036;-68
2023/05/20 10:04:19;;;;;;;5.70;2.33;;;;;;;;;;5024993;28;20367;-68
2023/05/20 10:06:55;;;;;;;5.85;3.22;;;;;;;;;;5026152;28;20291;-69
2023/05/20 10:09:44;;;;;;;6.18;2.63;;;;;;;;;;5025443;28;20374;-68
2023/05/20 10:12:35;;;;;;;4.20;2.40;;;;;;;;;;5023966;28;20379;-69
2023/05/20 10:15:21;;;;;;;4.50;2.90;;;;;;;;;;5014212;28;20013;-68
2023/05/20 10:17:52;;;;;;;4.78;2.33;;;;;;;;;;5029055;28;20034;-68
2023/05/20 10:20:17;;;;;;;3.75;2.40;;;;;;;;;;5027299;28;20025;-67
2023/05/20 10:22:44;;;;;;;6.13;3.05;;;;;;;;;;5028703;28;20430;-67
2023/05/20 10:25:11;;;;;;;6.90;3.03;;;;;;;;;;5027620;28;20060;-68
2023/05/20 10:27:44;;;;;;;4.97;2.70;;;;;;;;;;5017934;28;20066;-68
2023/05/20 10:30:19;;;;;;;4.40;2.30;;;;;;;;;;5023347;28;20018;-69
2023/05/20 10:32:48;;;;;;;4.13;2.58;;;;;;;;;;5027117;28;20036;-69
2023/05/20 10:35:20;;;;;;;3.83;2.10;;;;;;;;;;5026140;28;20033;-69
2023/05/20 10:37:46;;;;;;;5.35;2.70;;;;;;;;;;5028042;28;20029;-69
2023/05/20 10:40:12;;;;;;;7.03;3.20;;;;;;;;;;5030430;28;20020;-69
2023/05/20 10:42:38;;;;;;;6.65;3.13;;;;;;;;;;5031715;28;20378;-69
2023/05/20 10:45:03;;;;;;;6.95;3.30;;;;;;;;;;5032852;28;20072;-70
2023/05/20 10:47:29;;;;;;;5.47;3.60;;;;;;;;;;5028761;28;20032;-70
2023/05/20 10:49:55;;;;;;;9.07;3.10;;;;;;;;;;5031733;28;20518;-70
2023/05/20 10:52:20;;;;;;;8.63;3.60;;;;;;;;;;5026420;28;20060;-69
2023/05/20 10:54:46;;;;;;;6.15;3.35;;;;;;;;;;5030379;28;20474;-70
2023/05/20 10:57:12;;;;;;;9.32;3.47;;;;;;;;;;5031753;28;20101;-70
2023/05/20 10:59:39;;;;;;;6.13;3.83;;;;;;;;;;5032547;28;20103;-70
2023/05/20 11:02:05;;;;;;;7.85;3.40;;;;;;;;;;5033137;28;20097;-70
2023/05/20 11:04:31;;;;;;;7.47;3.83;;;;;;;;;;5032632;28;20096;-70
2023/05/20 11:06:57;;;;;;;7.43;3.60;;;;;;;;;;5032644;28;20027;-70
2023/05/20 11:09:22;;;;;;;9.63;4.03;;;;;;;;;;5032971;28;20009;-70
2023/05/20 11:11:48;;;;;;;5.95;3.15;;;;;;;;;;5029066;28;20022;-70
2023/05/20 11:14:14;;;;;;;10.93;3.33;;;;;;;;;;5032517;28;20107;-70
2023/05/20 11:16:41;;;;;;;6.70;3.70;;;;;;;;;;5032602;28;20025;-68
2023/05/20 11:19:07;;;;;;;7.15;3.50;;;;;;;;;;5032424;28;20021;-69
2023/05/20 11:21:33;;;;;;;10.02;3.63;;;;;;;;;;5032375;28;20664;-68
2023/05/20 11:23:58;;;;;;;6.93;3.05;;;;;;;;;;5032499;28;20075;-69
2023/05/20 11:26:23;;;;;;;7.67;4.00;;;;;;;;;;5030352;28;20064;-69
2023/05/20 11:28:48;;;;;;;10.07;3.90;;;;;;;;;;5032419;28;20018;-69
2023/05/20 11:31:13;;;;;;;6.07;3.27;;;;;;;;;;5032635;28;20264;-68
2023/05/20 11:33:42;;;;;;;8.77;3.67;;;;;;;;;;5030197;28;20268;-69
2023/05/20 11:36:08;;;;;;;4.97;3.45;;;;;;;;;;5032006;28;20075;-68
2023/05/20 11:38:33;;;;;;;5.85;3.40;;;;;;;;;;5031327;28;20460;-69
2023/05/20 11:40:58;;;;;;;8.30;4.57;;;;;;;;;;5032047;28;20017;-68
2023/05/20 11:43:24;;;;;;;10.00;4.28;;;;;;;;;;5030767;28;20814;-68
2023/05/20 11:45:53;;;;;;;4.93;3.40;;;;;;;;;;5032108;28;20470;-69
2023/05/20 11:48:18;;;;;;;6.93;4.38;;;;;;;;;;5031842;28;20441;-68
2023/05/20 11:50:45;;;;;;;7.13;4.60;;;;;;;;;;5031500;28;20034;-69
2023/05/20 11:53:13;;;;;;;7.97;4.45;;;;;;;;;;5029996;28;20021;-69
2023/05/20 11:55:57;;;;;;;6.50;4.07;;;;;;;;;;5031724;28;20339;-68
2023/05/20 11:58:28;;;;;;;6.93;4.50;;;;;;;;;;5024089;28;20018;-69
2023/05/20 12:00:53;;;;;;;10.80;4.38;;;;;;;;;;5031925;28;20032;-69
2023/05/20 12:03:18;;;;;;;5.93;3.73;;;;;;;;;;5030415;28;20018;-69
2023/05/20 12:05:44;;;;;;;5.93;3.83;;;;;;;;;;5025466;28;20338;-68
2023/05/20 12:08:09;;;;;;;5.65;3.45;;;;;;;;;;5030122;28;20013;-69
2023/05/20 12:10:38;;;;;;;6.60;3.90;;;;;;;;;;5031465;28;20045;-70
2023/05/20 12:13:04;;;;;;;5.05;3.40;;;;;;;;;;5030171;28;20021;-70
2023/05/20 12:15:29;;;;;;;5.60;3.47;;;;;;;;;;5031200;28;20079;-70
2023/05/20 12:17:55;;;;;;;8.73;3.65;;;;;;;;;;5031228;28;20021;-69
2023/05/20 12:20:21;;;;;;;7.65;4.47;;;;;;;;;;5031410;28;20013;-70
2023/05/20 12:22:47;;;;;;;9.25;3.88;;;;;;;;;;5026682;28;20494;-70
2023/05/20 12:25:13;;;;;;;6.45;3.80;;;;;;;;;;5029988;28;20021;-70
2023/05/20 12:27:39;;;;;;;5.25;3.60;;;;;;;;;;5026578;28;20026;-70
2023/05/20 12:30:04;;;;;;;11.63;4.05;;;;;;;;;;5031147;28;20025;-70
2023/05/20 12:32:30;;;;;;;5.82;3.63;;;;;;;;;;5031420;28;20014;-70
2023/05/20 12:34:55;;;;;;;7.63;3.83;;;;;;;;;;5031040;28;20021;-70
2023/05/20 12:37:20;;;;;;;4.50;3.30;;;;;;;;;;5030940;28;20271;-70
2023/05/20 12:39:45;;;;;;;6.20;3.35;;;;;;;;;;5029162;28;20286;-70
2023/05/20 12:42:11;;;;;;;6.80;3.70;;;;;;;;;;5029851;28;20021;-70
2023/05/20 12:44:36;;;;;;;4.60;3.15;;;;;;;;;;5031057;28;20260;-70
2023/05/20 12:47:01;;;;;;;4.40;2.97;;;;;;;;;;5031080;28;20013;-70
2023/05/20 12:49:26;;;;;;;9.63;3.17;;;;;;;;;;5030752;28;20581;-70
2023/05/20 12:51:51;;;;;;;6.60;3.43;;;;;;;;;;5030720;28;20025;-70
2023/05/20 12:54:16;;;;;;;9.07;3.93;;;;;;;;;;5029665;28;20779;-70
2023/05/20 12:56:46;;;;;;;9.13;3.30;;;;;;;;;;5030260;28;20025;-70
2023/05/20 12:59:11;;;;;;;4.80;2.87;;;;;;;;;;5026621;28;20851;-70
2023/05/20 13:01:37;;;;;;;5.63;3.55;;;;;;;;;;5030306;28;20300;-70
2023/05/20 13:04:02;;;;;;;6.25;3.17;;;;;;;;;;5030325;28;20045;-70
2023/05/20 13:06:27;;;;;;;6.93;3.67;;;;;;;;;;5030378;28;20025;-70
2023/05/20 13:08:52;;;;;;;6.10;3.27;;;;;;;;;;5026036;28;20029;-70
2023/05/20 13:11:18;;;;;;;5.82;3.15;;;;;;;;;;5025544;28;20316;-70
2023/05/20 13:13:43;;;;;;;4.85;3.33;;;;;;;;;;5027647;28;20017;-70
2023/05/20 13:16:09;;;;;;;8.77;3.03;;;;;;;;;;5029822;28;20075;-69
2023/05/20 13:18:35;;;;;;;5.75;3.10;;;;;;;;;;5029996;28;20259;-69
2023/05/20 13:21:00;;;;;;;6.15;3.20;;;;;;;;;;5030285;28;20017;-70
2023/05/20 13:23:25;;;;;;;5.93;3.13;;;;;;;;;;5030161;28;20029;-71
2023/05/20 13:25:51;;;;;;;5.93;3.45;;;;;;;;;;5029625;28;20391;-70
2023/05/20 13:28:19;;;;;;;6.00;3.35;;;;;;;;;;5029748;28;20415;-70
2023/05/20 13:30:44;;;;;;;4.63;2.88;;;;;;;;;;5030073;28;20018;-70
2023/05/20 13:33:10;;;;;;;6.78;2.80;;;;;;;;;;5030205;28;20090;-70
2023/05/20 13:35:35;;;;;;;6.30;3.53;;;;;;;;;;5030133;28;20017;-70
2023/05/20 13:38:00;;;;;;;8.70;3.50;;;;;;;;;;5030041;28;20497;-70
2023/05/20 13:40:26;;;;;;;23.60;5.10;;;;;;;;;;5029436;28;20029;-70
2023/05/20 13:42:51;;;;;;;5.20;3.43;;;;;;;;;;5029862;28;20018;-70
2023/05/20 13:45:17;;;;;;;4.87;3.13;;;;;;;;;;5030186;28;20101;-70
2023/05/20 13:47:42;;;;;;;6.90;3.92;;;;;;;;;;5030266;28;20053;-70
2023/05/20 13:50:08;;;;;;;7.53;3.07;;;;;;;;;;5030051;28;20072;-70
2023/05/20 13:52:33;;;;;;;10.07;2.95;;;;;;;;;;5029804;28;20261;-70
2023/05/20 13:54:58;;;;;;;6.37;2.70;;;;;;;;;;5029239;28;20029;-70
2023/05/20 13:57:23;;;;;;;4.93;3.30;;;;;;;;;;5029730;28;20330;-71
2023/05/20 13:59:48;;;;;;;4.70;3.10;;;;;;;;;;5030050;28;20049;-70
2023/05/20 14:02:14;;;;;;;4.40;3.10;;;;;;;;;;5030097;28;20347;-70
2023/05/20 14:04:43;;;;;;;7.15;3.50;;;;;;;;;;5029993;28;20033;-70
2023/05/20 14:07:08;;;;;;;5.47;3.17;;;;;;;;;;5029619;28;20060;-70
2023/05/20 14:09:34;;;;;;;5.80;3.27;;;;;;;;;;5029317;28;20017;-70
2023/05/20 14:11:59;;;;;;;6.97;3.53;;;;;;;;;;5029526;28;20562;-70
2023/05/20 14:14:24;;;;;;;6.30;3.45;;;;;;;;;;5030059;28;20029;-70
2023/05/20 14:16:49;;;;;;;4.60;3.07;;;;;;;;;;5033464;28;20506;-70
2023/05/20 14:19:14;;;;;;;4.88;2.88;;;;;;;;;;5032054;28;20753;-70
2023/05/20 14:21:40;;;;;;;6.53;2.83;;;;;;;;;;5033275;28;20509;-70
2023/05/20 14:24:05;;;;;;;5.37;3.50;;;;;;;;;;5033634;28;20115;-70
2023/05/20 14:26:31;;;;;;;6.93;3.40;;;;;;;;;;5036618;28;20328;-70
2023/05/20 14:28:56;;;;;;;10.00;3.38;;;;;;;;;;5034462;28;20017;-71
2023/05/20 14:31:22;;;;;;;6.27;3.80;;;;;;;;;;5031228;28;20032;-71
2023/05/20 14:33:47;;;;;;;4.27;3.10;;;;;;;;;;5030585;28;20294;-71
2023/05/20 14:36:12;;;;;;;10.95;3.03;;;;;;;;;;5029914;28;20257;-70